Time;durP1;ratioP1;P1;durP2;ratioP2;P2;SDS_P1;SDS_P2;PMS_P1;PMS_P2;Temp;Humidity;BMP_temperature;BMP_pressure;BME280_temperature;BME280_humidity;BME280_pressure;Samples;Min_cycle;Max_cycle;Signal;HPM_P1;HPM_P2
2021/12/18 00:01:16;;;;;;;2.53;2.05;;;;;;;19.84;45.19;104103.56;5017944;28;20038;-67
2021/12/18 00:03:41;;;;;;;1.85;1.67;;;;;;;19.80;45.27;104102.06;5021113;28;20049;-67
2021/12/18 00:06:07;;;;;;;1.63;1.52;;;;;;;19.79;45.27;104096.88;5013428;28;20152;-67
2021/12/18 00:08:33;;;;;;;2.17;1.60;;;;;;;19.73;45.29;104098.09;5012576;28;20175;-67
2021/12/18 00:10:58;;;;;;;1.80;1.70;;;;;;;19.74;45.35;104101.59;5017542;28;20069;-67
2021/12/18 00:13:24;;;;;;;1.40;1.30;;;;;;;19.74;45.25;104104.25;5012998;28;20762;-67
2021/12/18 00:15:50;;;;;;;2.75;1.50;;;;;;;19.69;45.37;104103.69;5017881;28;20047;-67
2021/12/18 00:18:16;;;;;;;1.63;1.50;;;;;;;19.73;45.30;104113.13;5017081;28;20044;-67
2021/12/18 00:20:42;;;;;;;1.45;1.30;;;;;;;19.68;45.51;104099.34;5017821;28;20029;-67
2021/12/18 00:23:07;;;;;;;1.60;1.50;;;;;;;19.71;45.22;104099.16;5016081;28;20041;-67
2021/12/18 00:25:34;;;;;;;1.67;1.45;;;;;;;19.60;45.38;104092.78;5011665;28;20767;-67
2021/12/18 00:27:59;;;;;;;2.28;1.40;;;;;;;19.66;45.47;104103.91;5018192;28;20075;-67
2021/12/18 00:30:26;;;;;;;2.60;1.80;;;;;;;19.64;45.32;104103.16;5032627;28;20025;-67
2021/12/18 00:32:52;;;;;;;1.63;1.38;;;;;;;19.58;45.41;104096.47;5014700;28;20041;-67
2021/12/18 00:35:18;;;;;;;1.30;1.20;;;;;;;19.58;45.53;104093.84;5013453;28;20046;-67
2021/12/18 00:37:44;;;;;;;1.67;1.40;;;;;;;19.54;45.54;104084.38;5019049;28;20115;-67
2021/12/18 00:40:17;;;;;;;1.60;1.30;;;;;;;19.48;45.58;104085.59;5010465;28;20119;-67
2021/12/18 00:45:35;;;;;;;1.70;1.40;;;;;;;19.47;45.63;104091.84;5008098;28;20159;-67
2021/12/18 00:48:00;;;;;;;1.60;1.50;;;;;;;19.52;45.58;104094.19;5013867;28;20475;-67
2021/12/18 00:50:31;;;;;;;1.65;1.50;;;;;;;19.54;45.58;104095.81;5012087;28;20416;-67
2021/12/18 00:52:57;;;;;;;1.65;1.30;;;;;;;19.46;45.75;104095.44;5012546;28;20029;-67
2021/12/18 00:55:23;;;;;;;1.35;1.25;;;;;;;19.50;45.60;104098.72;5014471;28;20039;-67
2021/12/18 00:57:50;;;;;;;1.60;1.50;;;;;;;19.46;45.68;104105.16;5015025;28;20060;-67
2021/12/18 01:00:23;;;;;;;1.92;1.48;;;;;;;19.43;45.60;104093.00;5014769;28;20030;-67
2021/12/18 01:02:52;;;;;;;1.90;1.58;;;;;;;19.45;45.64;104103.47;5012050;28;20038;-67
2021/12/18 01:05:18;;;;;;;1.27;1.17;;;;;;;19.42;45.74;104090.44;5013972;28;20038;-67
2021/12/18 01:07:44;;;;;;;1.80;1.42;;;;;;;19.44;45.57;104084.13;5017889;28;20480;-67
2021/12/18 01:12:57;;;;;;;2.10;1.15;;;;;;;19.46;45.57;104086.66;5016207;28;20034;-67
2021/12/18 01:15:29;;;;;;;1.88;1.50;;;;;;;19.36;45.80;104075.81;5020884;28;20098;-67
2021/12/18 01:23:24;;;;;;;1.27;1.10;;;;;;;19.34;45.78;104083.00;5022340;28;20073;-67
2021/12/18 01:25:50;;;;;;;1.60;1.50;;;;;;;19.37;45.54;104101.28;5019343;28;20030;-67
2021/12/18 01:28:16;;;;;;;1.30;1.20;;;;;;;19.34;45.74;104106.78;5019486;28;20057;-67
2021/12/18 01:30:42;;;;;;;1.85;1.17;;;;;;;19.33;45.88;104105.09;5022342;28;20123;-67
2021/12/18 01:33:08;;;;;;;1.52;1.42;;;;;;;19.29;45.84;104095.66;5021504;28;20038;-67
2021/12/18 01:35:34;;;;;;;1.20;1.10;;;;;;;19.31;45.79;104093.75;5019043;28;20045;-67
2021/12/18 01:38:00;;;;;;;1.10;1.10;;;;;;;19.25;45.80;104097.66;5016203;28;20045;-67
2021/12/18 01:40:26;;;;;;;1.38;1.27;;;;;;;19.37;45.57;104103.09;5018905;28;20038;-67
2021/12/18 01:53:18;;;;;;;1.02;0.95;;;;;;;19.26;45.76;104106.44;5014010;28;20061;-67
2021/12/18 01:55:44;;;;;;;1.15;1.05;;;;;;;19.20;45.84;104105.00;5018030;28;20041;-67
2021/12/18 01:58:10;;;;;;;1.20;0.90;;;;;;;19.21;45.82;104100.56;5012685;28;20069;-67
2021/12/18 02:00:39;;;;;;;1.42;1.33;;;;;;;19.17;46.04;104096.41;5012050;28;20037;-67
2021/12/18 02:03:05;;;;;;;1.10;1.10;;;;;;;19.15;45.76;104091.25;5019324;28;20051;-67
2021/12/18 02:05:31;;;;;;;0.90;0.90;;;;;;;19.12;45.78;104082.66;5018112;28;20141;-67
2021/12/18 02:07:57;;;;;;;1.10;0.93;;;;;;;19.16;45.83;104102.66;5016383;28;20045;-67
2021/12/18 02:10:26;;;;;;;1.33;1.23;;;;;;;19.13;45.76;104100.22;5014515;28;20135;-67
2021/12/18 02:13:10;;;;;;;1.30;1.20;;;;;;;19.15;45.92;104093.88;5020132;28;20511;-67
2021/12/18 02:21:12;;;;;;;1.17;1.15;;;;;;;19.10;46.09;104111.81;5020514;28;20589;-67
2021/12/18 02:23:39;;;;;;;1.02;1.02;;;;;;;19.09;46.05;104115.41;5019699;28;20111;-67
2021/12/18 02:26:05;;;;;;;1.17;1.08;;;;;;;19.08;45.95;104102.31;5015795;28;20046;-67
2021/12/18 02:28:31;;;;;;;1.35;1.23;;;;;;;19.10;45.91;104109.19;5020011;28;20033;-67
2021/12/18 02:30:58;;;;;;;1.02;0.80;;;;;;;19.09;45.99;104110.13;5016185;28;20080;-67
2021/12/18 02:33:26;;;;;;;1.00;0.90;;;;;;;19.08;46.05;104113.72;5020333;28;20037;-67
2021/12/18 02:35:54;;;;;;;1.08;0.98;;;;;;;19.05;46.04;104099.84;5018202;28;20387;-67
2021/12/18 02:38:31;;;;;;;1.40;1.08;;;;;;;19.05;45.95;104111.28;5015334;28;20049;-67
2021/12/18 02:43:26;;;;;;;1.30;1.20;;;;;;;19.02;46.08;104108.78;5019796;28;20033;-67
2021/12/18 02:45:55;;;;;;;1.27;1.17;;;;;;;18.96;45.99;104103.91;5021378;28;20049;-67
2021/12/18 02:48:21;;;;;;;1.38;1.15;;;;;;;18.98;46.11;104100.22;5017354;28;20829;-67
2021/12/18 02:50:47;;;;;;;1.20;1.10;;;;;;;18.94;46.23;104105.78;5015509;28;20455;-67
2021/12/18 02:53:12;;;;;;;1.20;1.05;;;;;;;18.96;45.99;104101.25;5015246;28;20045;-67
2021/12/18 02:55:38;;;;;;;0.88;0.88;;;;;;;18.94;45.88;104111.06;5011376;28;20045;-67
2021/12/18 02:58:03;;;;;;;1.67;1.13;;;;;;;18.95;46.17;104100.41;5020055;28;20053;-67
2021/12/18 03:00:29;;;;;;;1.13;1.05;;;;;;;18.88;46.15;104095.63;5020263;28;20038;-67
2021/12/18 03:02:56;;;;;;;1.17;0.98;;;;;;;18.84;46.14;104088.81;5012448;28;20472;-67
2021/12/18 03:05:32;;;;;;;0.90;0.90;;;;;;;18.92;46.17;104094.47;5014565;28;20641;-67
2021/12/18 03:08:07;;;;;;;0.98;0.90;;;;;;;18.93;46.03;104096.16;5014124;28;20073;-67
2021/12/18 03:19:10;;;;;;;1.33;1.20;;;;;;;18.85;46.19;104080.81;5017021;28;20507;-67
2021/12/18 03:24:36;;;;;;;0.98;0.90;;;;;;;18.79;46.27;104081.16;5019674;28;20044;-67
2021/12/18 03:27:01;;;;;;;1.20;1.10;;;;;;;18.80;46.21;104079.38;5016249;28;20034;-67
2021/12/18 03:29:27;;;;;;;1.15;1.05;;;;;;;18.85;46.07;104074.66;5020678;28;20031;-67
2021/12/18 03:31:53;;;;;;;1.20;1.00;;;;;;;18.83;46.29;104069.47;5016244;28;20477;-67
2021/12/18 03:34:18;;;;;;;1.25;0.95;;;;;;;18.76;46.07;104060.25;5016257;28;20041;-67
2021/12/18 03:36:44;;;;;;;0.88;0.77;;;;;;;18.81;46.10;104068.72;5019003;28;20419;-67
2021/12/18 03:39:10;;;;;;;1.15;1.05;;;;;;;18.70;46.32;104061.47;5015564;28;20030;-67
2021/12/18 03:41:35;;;;;;;1.40;1.15;;;;;;;18.80;46.09;104068.81;5011422;28;20033;-67
2021/12/18 03:44:01;;;;;;;1.55;0.90;;;;;;;18.74;46.22;104059.50;5017437;28;20434;-67
2021/12/18 03:46:27;;;;;;;1.15;1.10;;;;;;;18.76;46.23;104059.41;5018615;28;20466;-67
2021/12/18 03:48:52;;;;;;;1.20;1.08;;;;;;;18.75;46.29;104061.19;5017215;28;20068;-67
2021/12/18 03:51:18;;;;;;;1.00;0.95;;;;;;;18.77;46.34;104061.09;5017769;28;20590;-67
2021/12/18 03:53:43;;;;;;;1.17;1.08;;;;;;;18.76;46.03;104062.88;5005630;28;20068;-67
2021/12/18 03:56:09;;;;;;;1.02;0.90;;;;;;;18.76;46.27;104054.97;5017751;28;20049;-67
2021/12/18 03:58:34;;;;;;;0.90;0.90;;;;;;;18.74;46.13;104058.66;5015374;28;20052;-67
2021/12/18 04:01:00;;;;;;;0.88;0.88;;;;;;;18.71;46.21;104054.41;5020066;28;20302;-67
2021/12/18 04:03:26;;;;;;;0.95;0.90;;;;;;;18.74;46.20;104053.38;5019801;28;20044;-67
2021/12/18 04:05:51;;;;;;;1.15;1.05;;;;;;;18.71;46.19;104052.63;5019730;28;20076;-67
2021/12/18 04:08:17;;;;;;;1.00;0.82;;;;;;;18.69;46.23;104051.88;5011881;28;20037;-67
2021/12/18 04:10:43;;;;;;;1.20;1.00;;;;;;;18.65;46.30;104046.84;5021223;28;20115;-67
2021/12/18 04:13:09;;;;;;;0.93;0.80;;;;;;;18.67;46.33;104047.59;5022639;28;20041;-67
2021/12/18 04:15:36;;;;;;;0.80;0.77;;;;;;;18.63;46.67;104049.56;5015253;28;20646;-67
2021/12/18 04:18:02;;;;;;;0.88;0.88;;;;;;;18.63;46.20;104046.09;5014281;28;20182;-67
2021/12/18 04:20:28;;;;;;;1.00;0.80;;;;;;;18.63;46.30;104044.31;5014973;28;20471;-67
2021/12/18 04:22:54;;;;;;;1.17;0.90;;;;;;;18.61;46.34;104047.94;5014489;28;20048;-67
2021/12/18 04:25:19;;;;;;;0.75;0.75;;;;;;;18.63;46.43;104046.94;5013830;28;20037;-67
2021/12/18 04:27:45;;;;;;;1.10;0.85;;;;;;;18.59;46.27;104047.19;5021095;28;20072;-67
2021/12/18 04:30:12;;;;;;;1.17;0.90;;;;;;;18.62;46.46;104052.28;5021105;28;20030;-67
2021/12/18 04:32:37;;;;;;;0.75;0.75;;;;;;;18.65;46.19;104049.47;5016962;28;20117;-67
2021/12/18 04:35:03;;;;;;;0.98;0.88;;;;;;;18.65;46.27;104050.34;5032830;28;20049;-67
2021/12/18 04:37:29;;;;;;;0.65;0.65;;;;;;;18.63;46.40;104043.44;5019008;28;20127;-67
2021/12/18 04:39:54;;;;;;;0.77;0.77;;;;;;;18.60;46.45;104043.63;5013326;28;20048;-67
2021/12/18 04:42:20;;;;;;;0.73;0.73;;;;;;;18.60;46.16;104047.09;5015169;28;20072;-67
2021/12/18 04:44:46;;;;;;;1.02;0.90;;;;;;;18.59;46.52;104045.41;5021904;28;20692;-67
2021/12/18 04:47:12;;;;;;;2.05;0.77;;;;;;;18.61;46.31;104042.66;5019370;28;20045;-67
2021/12/18 04:49:38;;;;;;;0.93;0.93;;;;;;;18.54;46.35;104036.09;5016977;28;20400;-67
2021/12/18 04:52:05;;;;;;;1.10;1.00;;;;;;;18.56;46.34;104036.84;5023997;28;20423;-67
2021/12/18 04:54:30;;;;;;;0.82;0.82;;;;;;;18.54;46.28;104036.94;5020888;28;20033;-67
2021/12/18 04:56:56;;;;;;;1.05;0.90;;;;;;;18.52;46.51;104036.19;5014412;28;20079;-67
2021/12/18 04:59:22;;;;;;;0.82;0.82;;;;;;;18.55;46.35;104040.41;5016904;28;20076;-67
2021/12/18 05:01:51;;;;;;;1.20;1.08;;;;;;;18.50;46.54;104038.06;5019916;28;20108;-67
2021/12/18 05:04:16;;;;;;;0.82;0.73;;;;;;;18.52;46.38;104038.81;5018395;28;20076;-67
2021/12/18 05:06:45;;;;;;;1.02;0.93;;;;;;;18.54;46.53;104041.34;5020855;28;20634;-67
2021/12/18 05:09:12;;;;;;;1.13;0.60;;;;;;;18.51;46.48;104039.75;5018791;28;20072;-67
2021/12/18 05:11:38;;;;;;;0.68;0.68;;;;;;;18.38;46.47;104026.44;5021557;28;20046;-67
2021/12/18 05:14:04;;;;;;;0.98;0.70;;;;;;;18.52;46.51;104041.47;5023745;28;20073;-67
2021/12/18 05:16:30;;;;;;;0.73;0.73;;;;;;;18.48;46.35;104042.56;5017695;28;20129;-67
2021/12/18 05:18:55;;;;;;;0.60;0.60;;;;;;;18.52;46.46;104049.38;5020265;28;20495;-67
2021/12/18 05:21:21;;;;;;;1.58;0.82;;;;;;;18.50;46.50;104039.84;5020175;28;20583;-67
2021/12/18 05:23:47;;;;;;;0.88;0.88;;;;;;;18.52;46.30;104040.59;5018305;28;20380;-67
2021/12/18 05:26:12;;;;;;;0.80;0.80;;;;;;;18.49;46.57;104033.72;5018298;28;20038;-67
2021/12/18 05:28:38;;;;;;;0.63;0.63;;;;;;;18.50;46.54;104045.97;5024233;28;20079;-67
2021/12/18 05:31:04;;;;;;;0.60;0.60;;;;;;;18.53;46.39;104043.16;5016813;28;20061;-67
2021/12/18 05:33:29;;;;;;;0.80;0.70;;;;;;;18.60;46.24;104036.53;5020156;28;20052;-67
2021/12/18 05:35:55;;;;;;;0.60;0.60;;;;;;;18.68;45.95;104039.59;5018467;28;20052;-67
2021/12/18 05:38:20;;;;;;;0.70;0.60;;;;;;;18.77;45.86;104039.97;5015090;28;20048;-67
2021/12/18 05:40:46;;;;;;;0.68;0.60;;;;;;;18.79;45.90;104041.56;5009048;28;20770;-67
2021/12/18 05:43:11;;;;;;;0.95;0.73;;;;;;;18.85;45.66;104032.41;5001521;28;20041;-67
2021/12/18 05:45:37;;;;;;;0.70;0.70;;;;;;;18.95;45.54;104038.81;5012710;28;20049;-67
2021/12/18 05:48:04;;;;;;;0.88;0.75;;;;;;;19.04;45.66;104035.63;5012721;28;20499;-67
2021/12/18 05:50:30;;;;;;;0.63;0.50;;;;;;;19.12;45.56;104032.47;5016196;28;20046;-67
2021/12/18 05:52:58;;;;;;;0.70;0.70;;;;;;;19.26;45.43;104029.81;5017984;28;20030;-67
2021/12/18 05:55:25;;;;;;;0.73;0.73;;;;;;;19.35;45.26;104031.00;5028906;28;20041;-67
2021/12/18 05:57:51;;;;;;;0.60;0.60;;;;;;;19.48;45.31;104037.19;5019152;28;20439;-67
2021/12/18 06:00:20;;;;;;;0.50;0.50;;;;;;;19.55;45.31;104035.84;5014249;28;20141;-67
2021/12/18 06:02:46;;;;;;;0.60;0.60;;;;;;;19.62;45.14;104031.88;5019618;28;20029;-67
2021/12/18 06:05:11;;;;;;;0.70;0.70;;;;;;;19.66;45.08;104028.06;5020405;28;20483;-67
2021/12/18 06:10:09;;;;;;;0.57;0.52;;;;;;;19.84;44.93;104023.38;5017099;28;20038;-67
2021/12/18 06:12:34;;;;;;;0.50;0.50;;;;;;;19.91;44.86;104022.00;5019538;28;20038;-67
2021/12/18 06:15:00;;;;;;;0.40;0.40;;;;;;;19.94;44.83;104018.31;5022924;28;20037;-67
2021/12/18 06:17:26;;;;;;;0.73;0.73;;;;;;;19.93;44.87;104006.88;5021188;28;20041;-67
2021/12/18 06:19:51;;;;;;;0.63;0.60;;;;;;;20.03;44.81;104020.31;5019809;28;20557;-67
2021/12/18 06:22:17;;;;;;;0.50;0.50;;;;;;;20.05;44.86;104021.91;5021510;28;20059;-67
2021/12/18 06:24:42;;;;;;;0.50;0.50;;;;;;;20.07;44.61;104024.44;5011267;28;20489;-67
2021/12/18 06:27:08;;;;;;;0.60;0.60;;;;;;;20.11;44.64;104020.66;5015019;28;20068;-67
2021/12/18 06:29:33;;;;;;;0.63;0.55;;;;;;;20.11;44.69;104025.97;5016216;28;20092;-67
2021/12/18 06:32:00;;;;;;;0.40;0.40;;;;;;;20.10;44.62;104016.28;5018818;28;21365;-67
2021/12/18 06:34:25;;;;;;;0.60;0.60;;;;;;;20.11;44.59;104007.44;5003504;28;20113;-67
2021/12/18 06:36:51;;;;;;;0.50;0.50;;;;;;;20.10;44.71;104017.16;5019129;28;20049;-67
2021/12/18 06:39:16;;;;;;;0.52;0.52;;;;;;;20.11;44.86;104020.66;5021170;28;20049;-66
2021/12/18 06:41:42;;;;;;;0.68;0.50;;;;;;;20.07;44.75;104014.72;5019351;28;20029;-67
2021/12/18 06:44:08;;;;;;;1.23;0.93;;;;;;;20.06;44.81;104020.13;5011945;28;20509;-67
2021/12/18 06:46:33;;;;;;;0.60;0.60;;;;;;;20.06;44.78;104015.66;5022951;28;20041;-67
2021/12/18 06:48:59;;;;;;;0.57;0.55;;;;;;;20.06;44.74;104012.16;5022542;28;20514;-67
2021/12/18 06:51:24;;;;;;;0.52;0.52;;;;;;;20.07;44.75;104011.22;5020402;28;20042;-67
2021/12/18 06:53:50;;;;;;;0.77;0.60;;;;;;;20.11;44.64;104015.38;5022264;28;20099;-67
2021/12/18 06:56:15;;;;;;;0.55;0.55;;;;;;;20.15;44.55;104014.22;5016179;28;20036;-67
2021/12/18 06:58:41;;;;;;;0.75;0.60;;;;;;;20.15;44.54;104016.84;5021524;28;20095;-67
2021/12/18 07:01:06;;;;;;;0.65;0.50;;;;;;;20.16;44.50;104022.03;5018494;28;20041;-67
2021/12/18 07:03:33;;;;;;;1.40;0.70;;;;;;;20.15;44.53;104003.63;5021777;28;20041;-67
2021/12/18 07:05:59;;;;;;;0.55;0.47;;;;;;;20.16;44.61;104022.03;5014540;28;20424;-67
2021/12/18 07:08:25;;;;;;;0.50;0.50;;;;;;;20.19;44.50;104021.81;5021617;28;20119;-67
2021/12/18 07:10:51;;;;;;;0.93;0.70;;;;;;;20.20;44.51;104020.88;5021761;28;20045;-67
2021/12/18 07:13:16;;;;;;;0.70;0.70;;;;;;;20.23;44.45;104018.00;5021459;28;20049;-67
2021/12/18 07:15:42;;;;;;;0.93;0.80;;;;;;;20.30;44.27;104015.81;5011707;28;20073;-67
2021/12/18 07:18:07;;;;;;;0.60;0.47;;;;;;;20.33;44.28;104017.38;5015309;28;20033;-67
2021/12/18 07:20:33;;;;;;;0.93;0.73;;;;;;;20.36;44.34;104012.72;5022058;28;20484;-67
2021/12/18 07:22:59;;;;;;;0.80;0.80;;;;;;;20.35;44.16;104011.03;5021218;28;20060;-67
2021/12/18 07:25:25;;;;;;;0.63;0.35;;;;;;;20.36;44.33;104012.72;5017943;28;20087;-67
2021/12/18 07:27:50;;;;;;;1.40;0.70;;;;;;;20.36;44.27;104023.31;5022846;28;20029;-67
2021/12/18 07:30:16;;;;;;;1.02;0.70;;;;;;;20.33;44.28;104012.09;5018954;28;20041;-67
2021/12/18 07:32:42;;;;;;;0.70;0.70;;;;;;;20.32;44.07;104013.06;5020858;28;20044;-67
2021/12/18 07:35:10;;;;;;;0.60;0.60;;;;;;;20.31;44.33;104014.00;5022128;28;20027;-67
2021/12/18 07:37:36;;;;;;;0.60;0.60;;;;;;;20.29;44.60;104010.59;5023025;28;20825;-67
2021/12/18 07:40:04;;;;;;;0.77;0.70;;;;;;;20.26;44.51;104016.94;5016142;28;20041;-67
2021/12/18 07:42:30;;;;;;;0.75;0.65;;;;;;;20.27;44.51;104008.06;5017615;28;20033;-67
2021/12/18 07:44:57;;;;;;;0.73;0.73;;;;;;;20.26;44.42;104008.16;5014854;28;20886;-67
2021/12/18 07:47:22;;;;;;;0.50;0.50;;;;;;;20.31;44.34;104014.00;5012045;28;20057;-67
2021/12/18 07:49:48;;;;;;;0.60;0.60;;;;;;;20.35;44.17;104024.25;5016108;28;20138;-67
2021/12/18 07:52:14;;;;;;;0.75;0.60;;;;;;;20.37;44.21;104021.50;5017079;28;20432;-67
2021/12/18 07:54:39;;;;;;;0.80;0.70;;;;;;;20.39;44.14;104015.16;5007553;28;20038;-67
2021/12/18 07:57:05;;;;;;;1.38;0.70;;;;;;;20.43;44.12;104010.50;5011258;28;20033;-67
2021/12/18 07:59:31;;;;;;;0.68;0.68;;;;;;;20.46;44.05;104018.25;5018335;28;20087;-67
2021/12/18 08:01:56;;;;;;;0.77;0.73;;;;;;;20.49;44.00;104012.75;5012992;28;20038;-67
2021/12/18 08:04:22;;;;;;;1.17;0.80;;;;;;;20.51;43.85;104011.69;5008251;28;20432;-67
2021/12/18 08:06:47;;;;;;;1.58;0.75;;;;;;;20.55;43.98;104012.31;5011229;28;20073;-67
2021/12/18 08:09:13;;;;;;;0.85;0.80;;;;;;;20.56;43.95;104018.47;5018065;28;20041;-67
2021/12/18 08:11:38;;;;;;;1.58;0.70;;;;;;;20.53;43.99;104008.94;5016229;28;20033;-67
2021/12/18 08:14:04;;;;;;;1.10;0.82;;;;;;;20.51;44.05;104018.78;5016767;28;20042;-67
2021/12/18 08:16:30;;;;;;;1.55;0.88;;;;;;;20.50;44.03;104015.28;5017707;28;20726;-67
2021/12/18 08:18:55;;;;;;;0.57;0.57;;;;;;;20.47;44.11;104015.50;5016785;28;20041;-67
2021/12/18 08:21:21;;;;;;;0.98;0.82;;;;;;;20.49;44.09;104016.25;5018849;28;20037;-67
2021/12/18 08:23:47;;;;;;;4.53;0.70;;;;;;;20.46;44.08;104019.09;5021337;28;20041;-67
2021/12/18 08:26:12;;;;;;;1.35;1.00;;;;;;;20.43;44.06;104007.88;5017511;28;20029;-67
2021/12/18 08:28:38;;;;;;;1.38;0.90;;;;;;;20.46;44.20;104011.16;5021343;28;20041;-67
2021/12/18 08:31:04;;;;;;;1.50;1.00;;;;;;;20.44;44.16;104012.22;5022206;28;20044;-67
2021/12/18 08:33:30;;;;;;;2.58;1.13;;;;;;;20.43;44.10;104014.00;5017642;28;20041;-67
2021/12/18 08:35:55;;;;;;;0.70;0.70;;;;;;;20.45;44.17;104019.19;5018941;28;20075;-67
2021/12/18 08:38:21;;;;;;;1.27;1.05;;;;;;;20.44;44.24;104014.84;5016540;28;20505;-67
2021/12/18 08:40:47;;;;;;;1.10;1.00;;;;;;;20.41;44.14;104015.91;5020453;28;20091;-68
2021/12/18 08:43:13;;;;;;;2.53;1.08;;;;;;;20.37;44.49;104010.94;5021082;28;20075;-68
2021/12/18 08:45:39;;;;;;;1.00;0.88;;;;;;;20.43;44.14;104019.31;5020146;28;20468;-68
2021/12/18 08:48:04;;;;;;;1.48;0.90;;;;;;;20.43;44.18;104023.75;5020461;28;20050;-68
2021/12/18 08:50:30;;;;;;;2.88;1.33;;;;;;;20.42;44.22;104014.13;5019932;28;20045;-68
2021/12/18 08:52:56;;;;;;;2.78;1.50;;;;;;;20.40;44.13;104013.34;5019082;28;20068;-68
2021/12/18 08:55:22;;;;;;;1.27;1.00;;;;;;;20.37;44.30;104010.94;5012654;28;20042;-68
2021/12/18 08:57:49;;;;;;;0.90;0.68;;;;;;;20.39;44.25;104009.84;5020337;28;20057;-68
2021/12/18 09:00:18;;;;;;;1.40;1.30;;;;;;;20.45;44.17;104004.16;5016455;28;20045;-68
2021/12/18 09:02:46;;;;;;;1.85;1.08;;;;;;;20.45;44.05;104011.25;5020470;28;20451;-68
2021/12/18 09:05:11;;;;;;;1.88;0.98;;;;;;;20.47;44.15;104014.66;5018771;28;20064;-68
2021/12/18 09:07:37;;;;;;;1.55;1.02;;;;;;;20.51;44.12;104008.19;5023274;28;20033;-68
2021/12/18 09:10:05;;;;;;;0.80;0.63;;;;;;;20.51;44.02;104013.50;5013726;28;20763;-68
2021/12/18 09:12:31;;;;;;;3.78;1.17;;;;;;;20.54;44.49;104018.56;5017456;28;20038;-68
2021/12/18 09:14:56;;;;;;;1.45;0.95;;;;;;;20.57;44.28;104023.66;5022071;28;20067;-67
2021/12/18 09:17:22;;;;;;;2.83;1.27;;;;;;;20.52;44.27;104018.69;5016304;28;20041;-68
2021/12/18 09:19:48;;;;;;;0.80;0.75;;;;;;;20.52;44.27;104020.47;5019447;28;20439;-68
2021/12/18 09:22:14;;;;;;;1.95;1.48;;;;;;;20.37;44.33;103997.69;5014082;28;20037;-68
2021/12/18 09:24:39;;;;;;;1.83;1.10;;;;;;;20.48;44.29;104021.66;5012195;28;20040;-68
2021/12/18 09:27:06;;;;;;;1.17;0.80;;;;;;;20.46;44.35;104021.72;5022022;28;20048;-68
2021/12/18 09:29:32;;;;;;;2.42;1.00;;;;;;;20.45;44.35;104021.84;5017116;28;20459;-68
2021/12/18 09:31:58;;;;;;;3.45;1.13;;;;;;;20.42;44.30;104014.13;5018755;28;20082;-68
2021/12/18 09:34:26;;;;;;;2.38;1.10;;;;;;;20.33;44.47;104001.50;5022461;28;20041;-68
2021/12/18 09:36:52;;;;;;;0.80;0.80;;;;;;;20.43;44.28;104018.47;5021681;28;20046;-68
2021/12/18 09:39:18;;;;;;;1.88;1.10;;;;;;;20.40;44.39;104019.50;5025326;28;20049;-68
2021/12/18 09:41:48;;;;;;;2.97;1.20;;;;;;;20.42;44.22;104016.75;5016031;28;20068;-68
2021/12/18 09:44:14;;;;;;;1.92;0.98;;;;;;;20.43;44.23;104021.09;5023533;28;20455;-68
2021/12/18 09:46:39;;;;;;;3.22;1.20;;;;;;;20.43;44.21;104014.00;5017544;28;20044;-68
2021/12/18 09:49:06;;;;;;;2.80;1.30;;;;;;;20.42;44.22;104014.13;5012679;28;20046;-67
2021/12/18 09:51:32;;;;;;;1.15;0.90;;;;;;;20.41;44.24;104021.22;5015035;28;20049;-68
2021/12/18 09:53:58;;;;;;;2.22;1.02;;;;;;;20.43;44.25;104011.38;5023292;28;20474;-68
2021/12/18 09:56:25;;;;;;;1.52;1.10;;;;;;;20.43;44.11;104011.38;5020168;28;20044;-68
2021/12/18 09:58:51;;;;;;;1.85;1.05;;;;;;;20.32;44.09;103987.44;5020292;28;20119;-67
2021/12/18 10:01:18;;;;;;;1.23;1.13;;;;;;;20.42;44.13;103996.44;5023567;28;20741;-67
2021/12/18 10:03:45;;;;;;;2.55;1.17;;;;;;;20.44;44.13;104004.28;5017013;28;20060;-68
2021/12/18 10:06:35;;;;;;;2.03;1.30;;;;;;;20.43;44.22;104006.06;5019402;28;20418;-67
2021/12/18 10:09:04;;;;;;;2.08;1.15;;;;;;;20.38;44.23;103996.72;5018445;28;20729;-67
2021/12/18 10:11:30;;;;;;;2.72;1.40;;;;;;;20.40;44.31;103997.47;5019067;28;20053;-67
2021/12/18 10:13:58;;;;;;;1.10;1.00;;;;;;;20.35;44.18;103983.72;5024890;28;20049;-68
2021/12/18 10:16:27;;;;;;;2.78;1.20;;;;;;;20.39;44.39;103993.13;5019242;28;20037;-68
2021/12/18 10:18:53;;;;;;;3.30;1.48;;;;;;;20.37;44.33;103995.03;5016122;28;20064;-67
2021/12/18 10:21:21;;;;;;;4.93;1.35;;;;;;;20.38;44.29;103989.63;5019293;28;20029;-67
2021/12/18 10:23:48;;;;;;;2.67;1.17;;;;;;;20.34;44.36;103992.63;5022181;28;20041;-67
2021/12/18 10:26:36;;;;;;;2.42;0.98;;;;;;;20.37;44.33;103987.94;5019728;28;20076;-67
2021/12/18 10:29:04;;;;;;;2.28;1.38;;;;;;;20.36;44.24;103983.59;5015987;28;20043;-67
2021/12/18 10:31:44;;;;;;;1.38;1.00;;;;;;;20.39;44.05;103987.84;5019483;28;20029;-67
2021/12/18 10:34:24;;;;;;;2.25;1.38;;;;;;;20.41;44.27;103991.25;5020035;28;20065;-67
2021/12/18 10:37:14;;;;;;;1.90;1.27;;;;;;;20.41;44.23;103986.81;5018478;28;20112;-67
2021/12/18 10:39:57;;;;;;;1.88;1.00;;;;;;;20.42;44.14;103993.78;5020222;28;20033;-67
2021/12/18 10:42:46;;;;;;;1.10;1.00;;;;;;;20.38;44.22;103979.06;5016885;28;20101;-68
2021/12/18 10:45:19;;;;;;;2.95;0.93;;;;;;;20.33;44.22;103977.69;5015668;28;20383;-67
2021/12/18 10:47:58;;;;;;;3.15;1.08;;;;;;;20.40;44.06;103978.94;5016928;28;20037;-67
2021/12/18 10:50:32;;;;;;;2.65;0.88;;;;;;;20.38;43.95;103968.47;5017288;28;20228;-67
2021/12/18 10:53:03;;;;;;;1.20;1.05;;;;;;;20.39;44.00;103967.50;5015740;28;20090;-67
2021/12/18 10:55:44;;;;;;;3.08;1.50;;;;;;;20.35;44.18;103966.03;5019226;28;20034;-67
2021/12/18 10:58:24;;;;;;;1.70;1.10;;;;;;;20.31;44.22;103961.06;5019662;28;20080;-67
2021/12/18 11:00:53;;;;;;;2.08;1.30;;;;;;;20.30;44.23;103954.94;5013321;28;20068;-67
2021/12/18 11:03:26;;;;;;;1.20;1.10;;;;;;;20.31;44.19;103950.50;5016411;28;20021;-68
2021/12/18 11:06:10;;;;;;;2.42;1.10;;;;;;;20.30;44.18;103948.81;5017060;28;20447;-67
2021/12/18 11:09:04;;;;;;;2.22;1.10;;;;;;;20.26;44.23;103952.59;5016636;28;20033;-67
2021/12/18 11:14:13;;;;;;;1.52;1.25;;;;;;;20.25;44.26;103949.09;5014168;28;20049;-68
2021/12/18 11:16:41;;;;;;;2.13;1.20;;;;;;;20.27;44.06;103955.13;5012155;28;20121;-67
2021/12/18 11:19:13;;;;;;;2.00;1.20;;;;;;;20.26;44.16;103948.13;5009639;28;20464;-68
2021/12/18 11:21:56;;;;;;;2.10;1.50;;;;;;;20.28;44.20;103942.75;5005405;28;20041;-67
2021/12/18 11:24:31;;;;;;;4.18;1.25;;;;;;;20.30;44.13;103940.84;5006933;28;20200;-67
2021/12/18 11:27:05;;;;;;;2.15;1.48;;;;;;;20.32;44.05;103936.31;5005528;28;20056;-68
2021/12/18 11:29:44;;;;;;;2.47;1.50;;;;;;;20.32;44.10;103938.94;5012971;28;20080;-67
2021/12/18 11:32:15;;;;;;;1.25;1.05;;;;;;;20.35;44.08;103938.72;5008564;28;20043;-67
2021/12/18 11:34:42;;;;;;;1.35;1.17;;;;;;;20.34;44.09;103935.22;5012001;28;20136;-68
2021/12/18 11:37:10;;;;;;;2.15;1.10;;;;;;;20.33;44.28;103932.69;5014426;28;20574;-67
2021/12/18 11:39:37;;;;;;;1.67;1.10;;;;;;;20.31;43.98;103929.31;5014223;28;20369;-68
2021/12/18 11:42:03;;;;;;;3.05;1.27;;;;;;;20.29;44.01;103926.78;5013223;28;20041;-68
2021/12/18 11:44:40;;;;;;;1.75;1.08;;;;;;;20.30;43.98;103923.19;5012599;28;20505;-67
2021/12/18 11:47:27;;;;;;;1.73;0.90;;;;;;;20.29;44.13;103920.63;5011064;28;20040;-68
2021/12/18 11:50:18;;;;;;;2.00;1.20;;;;;;;20.28;43.99;103918.91;5007436;28;20058;-67
2021/12/18 11:53:05;;;;;;;3.72;1.75;;;;;;;20.27;43.96;103918.06;5006065;28;20065;-67
2021/12/18 11:55:32;;;;;;;1.85;0.73;;;;;;;20.28;43.94;103913.63;5015952;28;20029;-68
2021/12/18 11:58:00;;;;;;;1.70;1.40;;;;;;;20.21;43.95;103907.94;5014054;28;20446;-67
2021/12/18 12:00:43;;;;;;;2.10;0.95;;;;;;;20.20;44.02;103912.38;5016417;28;20470;-67
2021/12/18 12:03:10;;;;;;;2.88;1.48;;;;;;;20.22;44.15;103913.13;5017540;28;20048;-68
2021/12/18 12:05:48;;;;;;;1.48;1.30;;;;;;;20.19;43.96;103905.41;5016082;28;20033;-67
2021/12/18 12:08:40;;;;;;;1.65;1.15;;;;;;;20.18;44.01;103902.88;5008766;28;20038;-67
2021/12/18 12:11:15;;;;;;;1.10;1.00;;;;;;;20.18;43.89;103905.50;5009431;28;20502;-68
2021/12/18 12:14:00;;;;;;;1.80;0.98;;;;;;;20.13;44.02;103907.63;5008989;28;20562;-67